»·PEaware :: N335AK KSBA-KFCH

N335AK :: KSBA-KFCH

FLIGHT INFORMATION

Flight Status: Arrived
Operator: Privately registered:
United States
More flights under this callsign
Pilot: Gabor H. (24209)
Aircraft: Unknown
(EPIC)
More flights by this aircraft type
Origin: KSBA Santa Barbara Mun
United States
Destination: KFCH Fresno-Chandler Downtown
United States
More flights between these airports :: More routes between these airports
Route: +GVO PONDD FRAME
File this flight plan on PilotEdge
Remarks:
Altitude:
(Current/Filed)
14,000ft
Speed:
(Current/Filed)
340kts
Departed: 21-Oct-20 01:46 PM
Arrived: 21-Oct-20 02:26 PM
Distance/Time
Traveled:
138nm/0:40
Distance/Time
To Go:
Arrived

Flight Plot

Page will automatically refresh every two minutes.

Flight plan parsing failed; only flown route is shown


Map Options




Map Legend


Flown Route
Filed Route
Departure Airport
Arrival Airport
Navaid (VOR, NDB)
Fix

Horizontal Profiles

Position Reports

Time Latitude Longitude Heading Altitude Ground
Speed
21-Oct-20 13:23 34.432593 -119.835071 70 16ft 0kts
21-Oct-20 13:24 34.432593 -119.835071 70 16ft 0kts
21-Oct-20 13:25 34.432593 -119.835071 70 16ft 0kts
21-Oct-20 13:26 34.432593 -119.835071 70 16ft 0kts
21-Oct-20 13:27 34.432593 -119.835071 70 16ft 0kts
21-Oct-20 13:28 34.432593 -119.835071 70 16ft 0kts
21-Oct-20 13:29 34.432593 -119.835071 70 16ft 0kts
21-Oct-20 13:30 34.432593 -119.835071 70 16ft 0kts
21-Oct-20 13:31 34.432593 -119.835071 70 16ft 0kts
21-Oct-20 13:32 34.432593 -119.835071 70 16ft 0kts
21-Oct-20 13:33 34.432593 -119.835071 70 16ft 0kts
21-Oct-20 13:34 34.432593 -119.835071 70 16ft 0kts
21-Oct-20 13:35 34.432593 -119.835071 70 16ft 0kts
21-Oct-20 13:36 34.432593 -119.835071 70 16ft 0kts
21-Oct-20 13:37 34.432593 -119.835071 70 16ft 0kts
21-Oct-20 13:38 34.432593 -119.835071 70 16ft 0kts
21-Oct-20 13:39 34.432593 -119.835071 70 16ft 0kts
21-Oct-20 13:40 34.432593 -119.835071 70 16ft 0kts
21-Oct-20 13:41 34.432593 -119.835071 70 16ft 0kts
21-Oct-20 13:42 34.432072 -119.835136 245 16ft 14kts
21-Oct-20 13:43 34.430707 -119.839775 246 16ft 0kts
21-Oct-20 13:44 34.430020 -119.840144 164 16ft 0kts
21-Oct-20 13:45 34.397665 -119.830663 166 1587ft 162kts
21-Oct-20 13:46 34.359525 -119.840311 259 4696ft 173kts
21-Oct-20 13:47 34.353917 -119.904946 262 7084ft 218kts
21-Oct-20 13:48 34.346210 -119.984934 262 8022ft 264kts
21-Oct-20 13:49 34.337630 -120.069560 262 9513ft 229kts
21-Oct-20 13:50 34.381160 -120.101049 0 11390ft 237kts
21-Oct-20 13:51 34.447866 -120.096610 0 13233ft 245kts
21-Oct-20 13:52 34.521265 -120.091805 1 14001ft 291kts
21-Oct-20 13:53 34.598870 -120.048824 25 13992ft 318kts
21-Oct-20 13:55 34.679033 -119.998575 25 13991ft 329kts
21-Oct-20 13:56 34.760784 -119.947200 25 13995ft 331kts
21-Oct-20 13:57 34.842979 -119.895431 25 13994ft 333kts
21-Oct-20 13:58 34.925368 -119.843428 25 13991ft 333kts
21-Oct-20 13:59 35.007471 -119.791484 26 13990ft 331kts
21-Oct-20 14:00 35.089156 -119.739674 26 13989ft 331kts
21-Oct-20 14:01 35.170920 -119.687707 26 13988ft 331kts
21-Oct-20 14:02 35.252514 -119.635729 26 13984ft 331kts
21-Oct-20 14:03 35.334138 -119.583612 26 13980ft 332kts
21-Oct-20 14:04 35.415891 -119.531293 26 13978ft 332kts
21-Oct-20 14:05 35.498049 -119.478593 26 13974ft 332kts
21-Oct-20 14:06 35.579578 -119.426175 26 13972ft 331kts
21-Oct-20 14:07 35.661861 -119.373149 26 13954ft 333kts
21-Oct-20 14:08 35.743760 -119.320249 27 13954ft 333kts
21-Oct-20 14:09 35.828173 -119.277419 353 13958ft 331kts
21-Oct-20 14:10 35.912843 -119.313677 337 12658ft 313kts
21-Oct-20 14:10 35.979043 -119.347384 337 11405ft 307kts
21-Oct-20 14:12 36.068567 -119.393130 337 9793ft 286kts
21-Oct-20 14:12 36.128443 -119.423783 337 8719ft 281kts
21-Oct-20 14:14 36.211527 -119.466410 337 7386ft 274kts
21-Oct-20 14:14 36.269900 -119.496417 336 6465ft 271kts
21-Oct-20 14:15 36.337569 -119.535480 327 5783ft 270kts
21-Oct-20 14:16 36.398857 -119.588423 324 5279ft 266kts
21-Oct-20 14:17 36.462647 -119.634160 330 4331ft 260kts
21-Oct-20 14:18 36.525103 -119.677180 329 3227ft 255kts
21-Oct-20 14:19 36.584856 -119.718414 329 2081ft 224kts
21-Oct-20 14:20 36.629697 -119.749405 329 1598ft 126kts
21-Oct-20 14:21 36.655282 -119.765768 338 1312ft 111kts
21-Oct-20 14:22 36.684419 -119.779500 335 1286ft 112kts
21-Oct-20 14:23 36.713257 -119.792172 327 937ft 101kts
21-Oct-20 14:24 36.730297 -119.817158 305 284ft 85kts
21-Oct-20 14:25 36.731222 -119.819662 125 281ft 25kts
21-Oct-20 14:26 36.729766 -119.817844 88 281ft 0kts
21-Oct-20 14:27 36.729766 -119.817844 88 281ft 0kts
21-Oct-20 14:28 36.729766 -119.817844 88 281ft 0kts
21-Oct-20 14:29 36.729766 -119.817844 88 281ft 0kts
21-Oct-20 14:30 36.729766 -119.817844 88 281ft 0kts
21-Oct-20 14:31 36.729766 -119.817844 88 281ft 0kts
21-Oct-20 14:32 36.729766 -119.817844 88 281ft 0kts
21-Oct-20 14:33 36.729766 -119.817844 88 281ft 0kts
21-Oct-20 14:34 36.729766 -119.817844 88 281ft 0kts
21-Oct-20 14:35 36.729766 -119.817844 88 281ft 0kts
21-Oct-20 14:36 36.729766 -119.817844 88 281ft 0kts
21-Oct-20 14:37 36.729766 -119.817844 88 281ft 0kts
21-Oct-20 14:38 36.729766 -119.817844 88 281ft 0kts
21-Oct-20 14:39 36.729766 -119.817844 88 281ft 0kts

Navigation Log

Ident Type
Flight plan parsing failed, navigation log unavailable